Monday, November 20, 2017, 2:45 AM EST
Back to Local

KACY, Atlantic City International

Location: Absecon, NJ, United States Lat: 39.467
Local Time: 2:45 AM EST ( 7:45 GMT) Lon: -74.583
Time Zone: US/Eastern Elev: 75 ft

Show me the last for .
Show Decoded

2017-11-20 01:54 METAR KACY 200654Z 29009KT 10SM CLR 04/M03 A2993 RMK AO2 SLP135 T00391028 $ =
2017-11-20 00:54 METAR KACY 200554Z 27008KT 10SM CLR 04/M03 A2990 RMK AO2 SLP124 T00391028 10078
                 20039 51016 $ =
2017-11-19 23:54 METAR KACY 200454Z 26006KT 10SM CLR 04/M03 A2989 RMK AO2 SLP121 T00441033
                 401720044 $ =
2017-11-19 22:54 METAR KACY 200354Z 27007KT 10SM CLR 05/M03 A2987 RMK AO2 SLP115 T00501033 $ =
2017-11-19 21:54 METAR KACY 200254Z 28010KT 10SM CLR 07/M03 A2985 RMK AO2 PK WND 29027/0212
                 SLP108 T00671033 53026 $ =
2017-11-19 20:54 METAR KACY 200154Z 28010G21KT 10SM FEW049 OVC070 08/M02 A2982 RMK AO2 SLP096
                 T00781022 $ =
2017-11-19 19:54 METAR KACY 200054Z 28007KT 10SM SCT070 07/M02 A2980 RMK AO2 SLP091 T00671022 $ =
2017-11-19 18:54 METAR KACY 192354Z 28013G19KT 10SM FEW060 08/M03 A2978 RMK AO2 PK WND 30027/2303
                 SLP082 T00781028 10133 20078 51045 $ =
2017-11-19 17:54 METAR KACY 192254Z 29018G33KT 10SM BKN055 08/M03 A2974 RMK AO2 PK WND 28033/2249
                 SLP068 T00831033 $ =
2017-11-19 16:54 METAR KACY 192154Z 30015G24KT 10SM SCT055 09/M02 A2969 RMK AO2 PK WND 30032/2122
                 SLP054 T00891017 $ =
2017-11-19 15:54 METAR KACY 192054Z 29014G25KT 10SM CLR 11/M01 A2964 RMK AO2 PK WND 31035/1957
                 SLP037 T01061011 53026 $ =
2017-11-19 14:54 METAR KACY 191954Z 31020G34KT 10SM CLR 12/M01 A2960 RMK AO2 PK WND 30036/1933
                 SLP022 T01171006 $ =
2017-11-19 13:54 METAR KACY 191854Z 31026G35KT 10SM FEW050 12/00 A2957 RMK AO2 PK WND 29036/1841
                 SLP014 T01220000 $ =
2017-11-19 12:54 METAR KACY 191754Z 31026G32KT 10SM CLR 12/01 A2956 RMK AO2 PK WND 30039/1659
                 SLP011 60002 T01220011 10156 20106 51019 $ =
2017-11-19 11:54 METAR KACY 191654Z 31023G40KT 10SM CLR 13/02 A2956 RMK AO2 PK WND 30045/1623
                 SLP008 T01280017 $ =
2017-11-19 10:54 METAR KACY 191554Z 30023G40KT 10SM FEW044 12/02 A2954 RMK AO2 PK WND 30040/1548
                 SLP001 T01220022 $ =
2017-11-19 09:54 METAR KACY 191454Z 29020G34KT 10SM CLR 12/02 A2951 RMK AO2 PK WND 29046/1434
                 SLP992 60002 T01220022 51063 $ =
2017-11-19 08:54 METAR KACY 191354Z 29026G37KT 10SM CLR 11/03 A2947 RMK AO2 PK WND 28041/1317
                 RAE01 SLP977 P0000 T01110033 $ =
2017-11-19 07:54 METAR KACY 191254Z COR 28025G36KT 10SM FEW030 BKN075 OVC100 12/08 A2940 RMK AO2
                 PK WND 25045/1159 RAE11B52 SLP956 P0002 T01220083 $ =
2017-11-19 07:12 METAR KACY 191212Z 26016G27KT 10SM FEW015 BKN055 OVC070 14/11 A2935 RMK AO2 PK
                 WND 25045/1159 RAE11 PRESRR P0002 T01440111 $ =
2017-11-19 06:54 METAR KACY 191154Z 24017G29KT 4SM +RA BR FEW017 BKN029 OVC039 16/14 A2932 RMK
                 AO2 PK WND 23036/1121 SLP929 P0001 60023 70023 T01560139 10172 20144 55005 $ =
2017-11-19 05:54 METAR KACY 191054Z 22013G22KT 10SM -RA BKN070 OVC090 16/14 A2931 RMK AO2 PK WND
                 21026/1028 RAE30B51 SLP924 P0002 T01610139 $ =
2017-11-19 04:54 METAR KACY 190954Z 21016G31KT 10SM -RA FEW050 SCT075 OVC100 16/14 A2933 RMK AO2
                 PK WND 20031/0953 SLP930 P0010 T01610139 $ =
2017-11-19 03:54 METAR KACY 190854Z 19008KT 10SM -RA SCT040 BKN049 OVC070 14/14 A2934 RMK AO2
                 SLP934 P0005 60010 T01440139 58025 $ =
2017-11-19 02:54 METAR KACY 190754Z 20011KT 9SM -RA FEW049 BKN090 OVC110 15/14 A2938 RMK AO2
                 RAB00 SLP948 P0005 T01500139 $ =

Support USWX by starting your Amazon purchase here.